Time;durP1;ratioP1;P1;durP2;ratioP2;P2;SDS_P1;SDS_P2;PMS_P1;PMS_P2;Temp;Humidity;BMP_temperature;BMP_pressure;BME280_temperature;BME280_humidity;BME280_pressure;Samples;Min_cycle;Max_cycle;Signal;HPM_P1;HPM_P2
2022/08/01 00:00:36;;;;;;;8.48;5.30;;;22.30;68.20;;;;;;5014306;28;20033;-13
2022/08/01 00:03:02;;;;;;;6.65;5.10;;;22.20;68.40;;;;;;5014369;28;20112;-14
2022/08/01 00:05:28;;;;;;;9.35;5.00;;;22.20;69.10;;;;;;5014383;28;20121;-14
2022/08/01 00:07:54;;;;;;;6.72;5.13;;;22.20;68.90;;;;;;5014658;28;20022;-14
2022/08/01 00:10:20;;;;;;;6.28;4.47;;;22.20;69.00;;;;;;5014146;28;20026;-13
2022/08/01 00:12:46;;;;;;;6.32;4.95;;;22.20;69.00;;;;;;5014299;28;20501;-13
2022/08/01 00:15:14;;;;;;;7.10;5.20;;;22.20;69.20;;;;;;5014528;28;20026;-15
2022/08/01 00:17:41;;;;;;;7.38;4.93;;;22.10;69.60;;;;;;5014038;28;20536;-14
2022/08/01 00:20:10;;;;;;;7.85;5.10;;;22.10;69.50;;;;;;5014470;28;20034;-14
2022/08/01 00:22:36;;;;;;;6.35;5.35;;;22.00;70.10;;;;;;5014205;28;20041;-14
2022/08/01 00:25:04;;;;;;;7.38;5.00;;;22.00;69.70;;;;;;5014113;28;20057;-14
2022/08/01 00:27:31;;;;;;;7.68;5.80;;;22.00;69.80;;;;;;5014027;28;20026;-14
2022/08/01 00:29:58;;;;;;;7.43;5.28;;;21.90;70.10;;;;;;5013961;28;20037;-14
2022/08/01 00:32:24;;;;;;;6.13;4.95;;;22.00;70.10;;;;;;5013576;28;20568;-14
2022/08/01 00:34:50;;;;;;;7.13;5.07;;;21.90;70.10;;;;;;5014273;28;20044;-14
2022/08/01 00:37:16;;;;;;;7.22;5.63;;;21.90;70.30;;;;;;5014065;28;20034;-14
2022/08/01 00:39:43;;;;;;;8.57;6.68;;;21.90;70.30;;;;;;5013795;28;20459;-14
2022/08/01 00:42:10;;;;;;;8.07;5.68;;;21.90;70.40;;;;;;5013770;28;20046;-14
2022/08/01 00:44:38;;;;;;;11.05;6.75;;;21.90;70.70;;;;;;5013744;28;20164;-15
2022/08/01 00:47:05;;;;;;;9.57;7.00;;;21.80;71.00;;;;;;5014130;28;20030;-14
2022/08/01 00:49:31;;;;;;;9.40;7.00;;;21.80;71.40;;;;;;5013927;28;20080;-14
2022/08/01 00:51:58;;;;;;;13.57;8.57;;;21.70;71.70;;;;;;5013878;28;20022;-14
2022/08/01 00:54:25;;;;;;;12.20;8.95;;;21.70;73.20;;;;;;5013478;28;20026;-13
2022/08/01 00:56:53;;;;;;;9.88;8.27;;;21.60;74.60;;;;;;5013703;28;20398;-13
2022/08/01 00:59:22;;;;;;;13.27;9.57;;;21.50;74.00;;;;;;5012410;28;20026;-13
2022/08/01 01:01:48;;;;;;;9.27;7.88;;;21.50;74.20;;;;;;5013525;28;20034;-13
2022/08/01 01:04:15;;;;;;;10.00;7.45;;;21.50;73.10;;;;;;5012532;28;20030;-13
2022/08/01 01:06:46;;;;;;;10.88;7.47;;;21.40;73.00;;;;;;5013420;28;20386;-14
2022/08/01 01:09:33;;;;;;;8.98;7.38;;;21.40;73.30;;;;;;5013442;28;20026;-13
2022/08/01 01:12:07;;;;;;;9.68;7.60;;;21.40;73.10;;;;;;5013608;28;20022;-13
2022/08/01 01:15:08;;;;;;;11.38;7.90;;;21.40;73.20;;;;;;5013577;28;20029;-13
2022/08/01 01:17:48;;;;;;;9.68;6.70;;;21.40;73.80;;;;;;5009213;28;20038;-13
2022/08/01 01:20:16;;;;;;;7.70;6.53;;;21.40;73.20;;;;;;5013110;28;20018;-15
2022/08/01 01:22:58;;;;;;;9.05;7.30;;;21.40;73.30;;;;;;5013979;28;20084;-13
2022/08/01 01:26:02;;;;;;;8.48;6.78;;;21.40;73.80;;;;;;5013670;28;20041;-13
2022/08/01 01:28:54;;;;;;;9.15;7.28;;;21.40;74.00;;;;;;5013471;28;20433;-13
2022/08/01 01:31:23;;;;;;;12.80;8.43;;;21.40;73.50;;;;;;5004674;28;20038;-13
2022/08/01 01:33:53;;;;;;;10.23;7.75;;;21.40;73.40;;;;;;5013403;28;20466;-13
2022/08/01 01:36:21;;;;;;;9.25;7.32;;;21.40;73.60;;;;;;5012913;28;20116;-14
2022/08/01 01:38:48;;;;;;;11.07;8.10;;;21.40;73.70;;;;;;5013347;28;20114;-13
2022/08/01 01:41:17;;;;;;;9.23;7.78;;;21.40;73.80;;;;;;5012861;28;20533;-14
2022/08/01 01:43:45;;;;;;;16.20;12.82;;;21.30;73.80;;;;;;5013438;28;20022;-13
2022/08/01 01:46:13;;;;;;;10.63;7.97;;;21.30;74.30;;;;;;5013392;28;20034;-14
2022/08/01 01:48:40;;;;;;;9.65;7.70;;;21.20;74.60;;;;;;5013109;28;20355;-14
2022/08/01 01:51:06;;;;;;;10.13;7.47;;;21.20;74.70;;;;;;5013080;28;20033;-14
2022/08/01 01:53:34;;;;;;;8.27;6.65;;;21.20;74.90;;;;;;5012976;28;20037;-14
2022/08/01 01:56:02;;;;;;;10.02;8.23;;;21.20;74.80;;;;;;5013237;28;20033;-14
2022/08/01 01:58:30;;;;;;;10.27;8.23;;;21.20;74.80;;;;;;5012779;28;20363;-13
2022/08/01 02:01:01;;;;;;;13.48;11.63;;;21.20;74.80;;;;;;5012981;28;20033;-13
2022/08/01 02:03:29;;;;;;;15.43;12.73;;;21.20;75.10;;;;;;5012884;28;20371;-13
2022/08/01 02:05:56;;;;;;;11.68;9.48;;;21.10;75.50;;;;;;5012917;28;20030;-13
2022/08/01 02:08:24;;;;;;;11.88;10.23;;;21.10;75.90;;;;;;5012858;28;20018;-13
2022/08/01 02:13:40;;;;;;;13.27;10.02;;;21.00;76.20;;;;;;5013184;28;20117;-13
2022/08/01 02:16:08;;;;;;;13.10;10.00;;;21.00;76.60;;;;;;5014434;28;20029;-13
2022/08/01 02:18:34;;;;;;;11.90;9.40;;;20.90;76.30;;;;;;5016093;28;20537;-13
2022/08/01 02:21:05;;;;;;;8.73;7.32;;;20.90;76.40;;;;;;5016596;28;20041;-13
2022/08/01 02:23:37;;;;;;;11.05;7.95;;;20.90;76.40;;;;;;5016845;28;20371;-13
2022/08/01 02:26:09;;;;;;;9.43;7.53;;;20.90;76.30;;;;;;5016345;28;20037;-13
2022/08/01 02:28:55;;;;;;;8.70;6.90;;;20.90;76.60;;;;;;5016158;28;20033;-13
2022/08/01 02:31:23;;;;;;;8.77;6.68;;;20.80;76.40;;;;;;5016233;28;20022;-13
2022/08/01 02:34:05;;;;;;;8.95;6.85;;;20.80;76.10;;;;;;5016355;28;20048;-13
2022/08/01 02:36:37;;;;;;;8.40;6.53;;;20.70;76.20;;;;;;5015945;28;20545;-13
2022/08/01 02:39:08;;;;;;;10.25;7.10;;;20.70;76.20;;;;;;5016130;28;20443;-13
2022/08/01 02:41:40;;;;;;;9.45;7.25;;;20.70;76.20;;;;;;5016036;28;20616;-15
2022/08/01 02:44:09;;;;;;;8.55;6.75;;;20.70;76.20;;;;;;5016307;28;20034;-14
2022/08/01 02:46:38;;;;;;;10.02;7.55;;;20.70;76.10;;;;;;5015716;28;20181;-14
2022/08/01 02:49:08;;;;;;;9.07;7.38;;;20.60;76.10;;;;;;5016059;28;20026;-14
2022/08/01 02:51:37;;;;;;;9.13;7.68;;;20.60;76.10;;;;;;5015825;28;20038;-14
2022/08/01 02:54:07;;;;;;;9.88;8.43;;;20.50;76.30;;;;;;5016054;28;20030;-13
2022/08/01 02:56:34;;;;;;;9.65;7.05;;;20.40;76.60;;;;;;5015872;28;20026;-14
2022/08/01 02:59:25;;;;;;;10.38;8.27;;;20.40;76.60;;;;;;5016035;28;20593;-14
2022/08/01 03:01:55;;;;;;;12.27;10.60;;;20.40;76.70;;;;;;5015690;28;20026;-13
2022/08/01 03:04:23;;;;;;;11.68;8.95;;;20.30;76.70;;;;;;5015665;28;20080;-14
2022/08/01 03:06:52;;;;;;;11.02;9.13;;;20.30;77.00;;;;;;5015827;28;20026;-14
2022/08/01 03:09:19;;;;;;;14.98;11.95;;;20.20;77.00;;;;;;5015764;28;20097;-14
2022/08/01 03:11:48;;;;;;;11.48;9.65;;;20.20;77.40;;;;;;5015437;28;20030;-14
2022/08/01 03:14:15;;;;;;;12.85;10.30;;;20.20;77.50;;;;;;5015725;28;20026;-14
2022/08/01 03:16:45;;;;;;;13.27;9.20;;;20.10;77.50;;;;;;5015231;28;20029;-14
2022/08/01 03:19:13;;;;;;;14.27;10.75;;;20.00;77.40;;;;;;5015527;28;20382;-14
2022/08/01 03:21:41;;;;;;;15.10;11.85;;;20.00;77.60;;;;;;5015582;28;20037;-13
2022/08/01 03:24:09;;;;;;;12.48;9.65;;;20.00;77.70;;;;;;5015216;28;20031;-14
2022/08/01 03:26:38;;;;;;;11.05;7.38;;;20.00;77.80;;;;;;5014223;28;20057;-14
2022/08/01 03:29:12;;;;;;;11.38;8.80;;;20.00;77.80;;;;;;5014718;28;20014;-14
2022/08/01 03:31:42;;;;;;;15.32;12.52;;;19.90;77.80;;;;;;5015138;28;20034;-14
2022/08/01 03:34:09;;;;;;;12.13;8.38;;;19.90;77.70;;;;;;5014888;28;20486;-13
2022/08/01 03:36:48;;;;;;;15.13;11.82;;;19.90;77.80;;;;;;5014882;28;20066;-13
2022/08/01 03:39:16;;;;;;;12.23;10.40;;;19.90;77.80;;;;;;5015312;28;20516;-13
2022/08/01 03:41:50;;;;;;;11.85;9.23;;;19.90;77.80;;;;;;5014784;28;20192;-14
2022/08/01 03:44:22;;;;;;;12.13;8.65;;;19.90;77.90;;;;;;5014703;28;20028;-15
2022/08/01 03:47:00;;;;;;;10.68;8.20;;;19.90;77.90;;;;;;5014848;28;20121;-15
2022/08/01 03:49:30;;;;;;;13.40;10.88;;;19.90;77.90;;;;;;5014733;28;20018;-14
2022/08/01 03:51:58;;;;;;;12.13;8.80;;;19.80;78.00;;;;;;5015064;28;20025;-14
2022/08/01 03:54:28;;;;;;;11.30;7.40;;;19.80;77.80;;;;;;5014414;28;20076;-14
2022/08/01 03:56:55;;;;;;;10.05;8.52;;;19.80;77.80;;;;;;5014810;28;20053;-14
2022/08/01 03:59:22;;;;;;;14.18;11.43;;;19.80;77.60;;;;;;5014604;28;20065;-14
2022/08/01 04:01:49;;;;;;;10.73;8.15;;;19.90;77.60;;;;;;5014503;28;20026;-14
2022/08/01 04:04:15;;;;;;;10.93;8.15;;;19.90;77.70;;;;;;5014227;28;20022;-14
2022/08/01 04:06:44;;;;;;;11.70;8.70;;;19.90;77.60;;;;;;5014934;28;20053;-14
2022/08/01 04:09:11;;;;;;;10.35;7.28;;;19.90;77.80;;;;;;5014751;28;20490;-14
2022/08/01 04:11:38;;;;;;;9.40;7.22;;;19.80;77.50;;;;;;5014300;28;20391;-14
2022/08/01 04:14:04;;;;;;;11.02;7.60;;;19.80;77.40;;;;;;5013080;28;20026;-13
2022/08/01 04:16:30;;;;;;;11.90;8.40;;;19.80;77.40;;;;;;5014034;28;20057;-14
2022/08/01 04:18:56;;;;;;;15.88;10.05;;;19.80;77.50;;;;;;5014312;28;20061;-13
2022/08/01 04:21:28;;;;;;;12.80;8.75;;;19.80;77.30;;;;;;5014514;28;20025;-14
2022/08/01 04:23:59;;;;;;;9.02;7.30;;;19.80;77.50;;;;;;5014427;28;20096;-14
2022/08/01 04:26:27;;;;;;;12.20;9.13;;;19.80;77.30;;;;;;5014232;28;20030;-14
2022/08/01 04:28:54;;;;;;;10.27;7.13;;;19.80;77.40;;;;;;5014351;28;20022;-14
2022/08/01 04:31:22;;;;;;;11.00;8.15;;;19.90;77.50;;;;;;5013995;28;20596;-14
2022/08/01 04:33:51;;;;;;;8.70;6.45;;;19.90;77.50;;;;;;5014165;28;20034;-14
2022/08/01 04:36:20;;;;;;;19.35;8.85;;;19.90;77.40;;;;;;5013691;28;20033;-14
2022/08/01 04:38:50;;;;;;;11.30;6.70;;;19.90;77.30;;;;;;5013681;28;20042;-14
2022/08/01 04:41:18;;;;;;;9.23;6.78;;;20.00;77.10;;;;;;5013290;28;20050;-14
2022/08/01 04:43:46;;;;;;;9.45;6.75;;;20.00;77.00;;;;;;5014149;28;20049;-14
2022/08/01 04:46:14;;;;;;;9.52;7.13;;;20.10;77.10;;;;;;5014020;28;20057;-14
2022/08/01 04:48:41;;;;;;;9.00;6.28;;;20.20;77.10;;;;;;5013647;28;20112;-14
2022/08/01 04:51:17;;;;;;;9.52;6.60;;;20.20;76.80;;;;;;5014025;28;20041;-14
2022/08/01 04:53:45;;;;;;;8.30;5.80;;;20.30;76.50;;;;;;5014004;28;20029;-13
2022/08/01 04:56:12;;;;;;;7.05;5.85;;;20.40;76.30;;;;;;5013853;28;20401;-14
2022/08/01 04:58:42;;;;;;;7.50;5.93;;;20.40;76.40;;;;;;5013259;28;20385;-14
2022/08/01 05:01:10;;;;;;;7.80;5.45;;;20.50;76.20;;;;;;5013849;28;20034;-14
2022/08/01 05:03:36;;;;;;;7.38;5.50;;;20.60;75.90;;;;;;5013624;28;20038;-14
2022/08/01 05:06:02;;;;;;;8.85;5.85;;;20.70;75.40;;;;;;5013533;28;20034;-14
2022/08/01 05:08:28;;;;;;;9.85;5.90;;;20.90;75.00;;;;;;5013241;28;20032;-14
2022/08/01 05:10:55;;;;;;;10.35;7.45;;;21.00;74.60;;;;;;5013805;28;20034;-14
2022/08/01 05:13:21;;;;;;;8.00;5.72;;;21.10;74.20;;;;;;5013703;28;20030;-14
2022/08/01 05:15:47;;;;;;;9.48;5.75;;;21.20;73.60;;;;;;5013395;28;20500;-14
2022/08/01 05:18:13;;;;;;;6.72;5.53;;;21.40;73.30;;;;;;5013194;28;20040;-14
2022/08/01 05:20:40;;;;;;;9.65;5.70;;;21.50;72.80;;;;;;5013177;28;20022;-14
2022/08/01 05:23:06;;;;;;;7.43;5.65;;;21.60;72.60;;;;;;5012090;28;20033;-14
2022/08/01 05:25:33;;;;;;;10.13;5.95;;;21.80;72.40;;;;;;5013293;28;20072;-14
2022/08/01 05:27:59;;;;;;;7.22;5.32;;;21.90;72.20;;;;;;5013507;28;20026;-14
2022/08/01 05:30:25;;;;;;;10.48;6.00;;;22.00;71.70;;;;;;5012999;28;20030;-15
2022/08/01 05:32:51;;;;;;;7.13;5.93;;;22.20;71.20;;;;;;5012041;28;20028;-14
2022/08/01 05:35:17;;;;;;;6.70;4.88;;;22.40;70.80;;;;;;5013472;28;20034;-14
2022/08/01 05:37:43;;;;;;;8.73;5.63;;;22.50;70.00;;;;;;5011909;28;20397;-14
2022/08/01 05:40:09;;;;;;;11.23;6.22;;;22.70;69.60;;;;;;5012956;28;20493;-14
2022/08/01 05:42:35;;;;;;;9.43;5.85;;;22.90;69.50;;;;;;5011836;28;20056;-13
2022/08/01 05:45:01;;;;;;;11.55;6.32;;;23.00;69.10;;;;;;5013168;28;20565;-14
2022/08/01 05:47:26;;;;;;;9.98;6.45;;;23.20;68.80;;;;;;5013080;28;20026;-14
2022/08/01 05:49:52;;;;;;;16.02;6.72;;;23.30;68.60;;;;;;5012968;28;20084;-14
2022/08/01 05:52:18;;;;;;;9.82;6.72;;;23.40;68.10;;;;;;5016286;28;20609;-14
2022/08/01 05:54:44;;;;;;;9.55;6.10;;;23.60;68.00;;;;;;5015665;28;20061;-13
2022/08/01 05:57:10;;;;;;;8.93;6.20;;;23.80;67.60;;;;;;5015537;28;20034;-13
2022/08/01 05:59:36;;;;;;;8.07;5.60;;;23.90;67.30;;;;;;5017309;28;20038;-14
2022/08/01 06:02:02;;;;;;;8.35;6.72;;;24.00;67.20;;;;;;5016737;28;20034;-14
2022/08/01 06:04:28;;;;;;;9.40;7.45;;;24.20;66.90;;;;;;5016402;28;20485;-14
2022/08/01 06:06:53;;;;;;;9.38;6.35;;;24.30;66.70;;;;;;5017222;28;20034;-14
2022/08/01 06:09:19;;;;;;;8.85;6.53;;;24.40;66.40;;;;;;5017090;28;20465;-14
2022/08/01 06:11:45;;;;;;;10.05;6.35;;;24.50;66.30;;;;;;5016927;28;20029;-14
2022/08/01 06:14:11;;;;;;;9.52;6.78;;;24.70;66.00;;;;;;5015307;28;20155;-14
2022/08/01 06:16:37;;;;;;;10.25;6.22;;;24.80;66.30;;;;;;5016576;28;20076;-14
2022/08/01 06:19:03;;;;;;;12.25;6.43;;;25.00;65.70;;;;;;5016296;28;20034;-14
2022/08/01 06:21:29;;;;;;;11.85;6.10;;;25.20;65.30;;;;;;5017077;28;20030;-14
2022/08/01 06:23:55;;;;;;;9.35;5.63;;;25.40;64.70;;;;;;5016329;28;20608;-14
2022/08/01 06:26:20;;;;;;;8.23;5.82;;;25.50;64.00;;;;;;5016221;28;20034;-13
2022/08/01 06:28:46;;;;;;;8.25;6.00;;;25.70;63.90;;;;;;5016609;28;20057;-13
2022/08/01 06:31:14;;;;;;;9.48;5.47;;;25.80;64.00;;;;;;5016391;28;20032;-14
2022/08/01 06:33:40;;;;;;;7.45;5.10;;;26.00;63.80;;;;;;5016121;28;20030;-13
2022/08/01 06:36:06;;;;;;;8.43;6.55;;;26.20;63.70;;;;;;5015147;28;20060;-13
2022/08/01 06:38:32;;;;;;;9.43;6.32;;;26.30;64.10;;;;;;5015939;28;20026;-13
2022/08/01 06:40:58;;;;;;;6.68;5.55;;;26.50;64.30;;;;;;5015777;28;20120;-12
2022/08/01 06:43:24;;;;;;;9.10;6.20;;;26.60;63.60;;;;;;5016241;28;20541;-13
2022/08/01 06:45:50;;;;;;;9.63;6.28;;;26.70;63.60;;;;;;5016045;28;20109;-13
2022/08/01 06:48:16;;;;;;;14.25;7.07;;;26.90;63.50;;;;;;5015912;28;20029;-13
2022/08/01 06:50:42;;;;;;;8.60;6.22;;;27.00;63.30;;;;;;5015950;28;20026;-13
2022/08/01 06:53:08;;;;;;;8.85;6.13;;;27.10;62.90;;;;;;5016084;28;20080;-13
2022/08/01 06:55:34;;;;;;;8.98;6.68;;;27.30;62.70;;;;;;5016004;28;20474;-13
2022/08/01 06:58:00;;;;;;;11.50;5.97;;;27.40;62.40;;;;;;5014512;28;20517;-13
2022/08/01 07:00:27;;;;;;;8.95;6.53;;;27.40;62.30;;;;;;5015727;28;20030;-13
2022/08/01 07:02:55;;;;;;;9.57;6.35;;;27.50;62.30;;;;;;5014610;28;20487;-13
2022/08/01 07:05:22;;;;;;;12.18;5.55;;;27.50;62.90;;;;;;5015872;28;20490;-13
2022/08/01 07:07:48;;;;;;;9.43;6.10;;;27.60;62.50;;;;;;5015879;28;20450;-13
2022/08/01 07:10:14;;;;;;;10.35;5.97;;;27.80;62.40;;;;;;5014288;28;20108;-13
2022/08/01 07:12:40;;;;;;;8.85;6.15;;;27.90;62.40;;;;;;5015429;28;20018;-13
2022/08/01 07:15:11;;;;;;;7.72;5.05;;;28.00;62.30;;;;;;5015714;28;20109;-13
2022/08/01 07:17:42;;;;;;;8.45;5.43;;;28.20;62.10;;;;;;5015339;28;20037;-12
2022/08/01 07:20:10;;;;;;;7.40;5.10;;;28.30;62.10;;;;;;5015328;28;20025;-12
2022/08/01 07:22:37;;;;;;;8.00;6.05;;;28.40;61.90;;;;;;5015116;28;20041;-13
2022/08/01 07:25:05;;;;;;;7.53;4.50;;;28.50;61.40;;;;;;5015241;28;20081;-13
2022/08/01 07:27:31;;;;;;;8.50;5.28;;;28.60;61.30;;;;;;5015463;28;20029;-13
2022/08/01 07:29:57;;;;;;;9.30;5.25;;;28.70;61.60;;;;;;5015417;28;20033;-13
2022/08/01 07:32:24;;;;;;;5.50;3.95;;;28.90;61.30;;;;;;5014896;28;20370;-13
2022/08/01 07:34:50;;;;;;;5.53;4.22;;;28.90;60.80;;;;;;5014903;28;20036;-13
2022/08/01 07:37:16;;;;;;;7.72;4.85;;;29.10;60.50;;;;;;5015215;28;20030;-12
2022/08/01 07:39:42;;;;;;;8.00;5.32;;;29.30;60.00;;;;;;5015235;28;20032;-13
2022/08/01 07:42:08;;;;;;;5.85;4.68;;;29.50;59.70;;;;;;5014814;28;20049;-13
2022/08/01 07:44:35;;;;;;;9.07;5.28;;;29.60;58.90;;;;;;5014749;28;20030;-13
2022/08/01 07:47:01;;;;;;;7.55;4.00;;;29.80;58.30;;;;;;5015116;28;20096;-13
2022/08/01 07:49:27;;;;;;;6.13;4.00;;;29.90;58.30;;;;;;5014647;28;20033;-13
2022/08/01 07:51:54;;;;;;;7.72;5.45;;;30.00;57.80;;;;;;5014734;28;20022;-13
2022/08/01 07:54:19;;;;;;;8.15;5.20;;;30.30;57.00;;;;;;5014723;28;20046;-13
2022/08/01 07:56:45;;;;;;;7.18;4.70;;;30.40;55.70;;;;;;5014957;28;20121;-13
2022/08/01 07:59:11;;;;;;;6.72;5.13;;;30.60;56.20;;;;;;5014872;28;20042;-13
2022/08/01 08:01:37;;;;;;;7.22;5.35;;;30.70;55.80;;;;;;5014877;28;20026;-13
2022/08/01 08:04:03;;;;;;;5.57;4.10;;;30.90;54.90;;;;;;5014419;28;20424;-13
2022/08/01 08:06:29;;;;;;;5.40;4.28;;;31.00;55.10;;;;;;5014256;28;20504;-13
2022/08/01 08:08:55;;;;;;;6.10;3.83;;;31.00;54.80;;;;;;5014434;28;20065;-13
2022/08/01 08:11:21;;;;;;;4.60;3.30;;;31.20;54.50;;;;;;5014330;28;20030;-13
2022/08/01 08:13:47;;;;;;;5.45;3.55;;;31.40;54.10;;;;;;5014135;28;20045;-13
2022/08/01 08:16:13;;;;;;;7.45;4.50;;;31.80;53.70;;;;;;5014561;28;20038;-13
2022/08/01 08:18:39;;;;;;;6.10;4.35;;;32.00;52.90;;;;;;5014575;28;20030;-13
2022/08/01 08:21:05;;;;;;;5.57;3.70;;;32.40;51.80;;;;;;5014179;28;20470;-13
2022/08/01 08:26:15;;;;;;;4.47;3.80;;;32.90;49.50;;;;;;5013433;28;20180;-13
2022/08/01 08:28:41;;;;;;;6.60;3.55;;;33.20;49.20;;;;;;5014690;28;20526;-13
2022/08/01 08:31:08;;;;;;;6.63;3.53;;;33.40;48.20;;;;;;5014027;28;20128;-13
2022/08/01 08:33:33;;;;;;;5.35;3.90;;;33.60;47.40;;;;;;5013853;28;20490;-13
2022/08/01 08:35:59;;;;;;;5.68;3.63;;;33.70;46.60;;;;;;5012746;28;20041;-13
2022/08/01 08:38:27;;;;;;;4.55;3.10;;;33.70;46.80;;;;;;5013671;28;20030;-13
2022/08/01 08:40:53;;;;;;;8.75;2.92;;;33.80;46.50;;;;;;5013764;28;20061;-13
2022/08/01 08:43:19;;;;;;;3.55;2.92;;;34.00;46.20;;;;;;5014159;28;20056;-13
2022/08/01 08:45:45;;;;;;;3.60;3.30;;;34.20;45.70;;;;;;5014496;28;20061;-13
2022/08/01 08:48:13;;;;;;;3.92;3.15;;;34.30;44.60;;;;;;5013977;28;20084;-13
2022/08/01 08:50:41;;;;;;;6.53;3.78;;;34.40;44.70;;;;;;5013882;28;20117;-13
2022/08/01 08:53:10;;;;;;;6.45;2.90;;;34.50;43.20;;;;;;5013991;28;20026;-13
2022/08/01 08:55:37;;;;;;;3.72;2.80;;;34.50;44.00;;;;;;5013616;28;20029;-13
2022/08/01 08:58:05;;;;;;;4.47;2.75;;;34.50;43.80;;;;;;5013505;28;20034;-13
2022/08/01 09:00:35;;;;;;;3.00;2.75;;;34.80;43.50;;;;;;5013377;28;20061;-13
2022/08/01 09:03:01;;;;;;;2.78;2.58;;;35.00;41.80;;;;;;5013554;28;20032;-13
2022/08/01 09:05:27;;;;;;;3.58;2.50;;;35.20;41.50;;;;;;5013483;28;20026;-13
2022/08/01 09:07:53;;;;;;;4.53;2.75;;;35.40;38.80;;;;;;5013505;28;20026;-13
2022/08/01 09:10:20;;;;;;;2.50;2.30;;;35.50;39.10;;;;;;5013249;28;20075;-13
2022/08/01 09:13:10;;;;;;;2.92;2.42;;;35.80;38.00;;;;;;5012255;28;20029;-13
2022/08/01 09:15:54;;;;;;;3.72;2.30;;;36.00;38.30;;;;;;5013443;28;20450;-13
2022/08/01 09:18:44;;;;;;;4.15;2.67;;;36.40;37.20;;;;;;5013158;28;20030;-14
2022/08/01 09:21:19;;;;;;;5.78;2.67;;;36.60;36.50;;;;;;5013647;28;20030;-13
2022/08/01 09:23:54;;;;;;;3.13;2.80;;;36.80;36.70;;;;;;5013405;28;20053;-13
2022/08/01 09:26:30;;;;;;;3.10;2.28;;;36.70;36.70;;;;;;5017014;28;20034;-12
2022/08/01 09:28:57;;;;;;;3.97;2.70;;;36.90;37.10;;;;;;5020188;28;20030;-13
2022/08/01 09:31:27;;;;;;;3.33;2.25;;;37.20;36.50;;;;;;5019780;28;20153;-13
2022/08/01 09:33:57;;;;;;;2.97;2.38;;;37.20;36.40;;;;;;5019787;28;20486;-13
2022/08/01 09:36:26;;;;;;;4.93;2.58;;;37.40;36.30;;;;;;5019572;28;20519;-13
2022/08/01 09:38:54;;;;;;;3.08;2.60;;;37.60;35.90;;;;;;5018482;28;20038;-13
2022/08/01 09:41:31;;;;;;;4.22;2.70;;;37.80;35.80;;;;;;5019962;28;20046;-13
2022/08/01 09:43:57;;;;;;;2.67;2.47;;;37.80;35.00;;;;;;5019687;28;20486;-13
2022/08/01 09:46:23;;;;;;;4.93;2.58;;;37.80;35.80;;;;;;5019751;28;20080;-13
2022/08/01 09:49:04;;;;;;;2.97;2.40;;;37.90;35.50;;;;;;5020057;28;20028;-13
2022/08/01 09:51:38;;;;;;;5.10;2.70;;;37.70;35.30;;;;;;5019850;28;20536;-13
2022/08/01 09:54:06;;;;;;;6.57;2.92;;;37.60;35.70;;;;;;5019607;28;20061;-13
2022/08/01 09:56:45;;;;;;;2.85;2.50;;;37.50;35.80;;;;;;5019559;28;20535;-13
2022/08/01 09:59:12;;;;;;;3.28;2.28;;;37.40;36.20;;;;;;5019526;28;20117;-13
2022/08/01 10:01:48;;;;;;;4.13;2.42;;;37.50;35.50;;;;;;5019523;28;20030;-13
2022/08/01 10:04:17;;;;;;;3.28;2.47;;;37.80;32.70;;;;;;5019175;28;20025;-12
2022/08/01 10:06:49;;;;;;;3.17;2.13;;;37.90;32.90;;;;;;5019480;28;20030;-13
2022/08/01 10:09:25;;;;;;;4.30;2.55;;;38.00;32.50;;;;;;5019558;28;20029;-13
2022/08/01 10:11:52;;;;;;;4.40;2.80;;;37.90;32.50;;;;;;5019800;28;20045;-13
2022/08/01 10:14:19;;;;;;;5.05;2.30;;;37.70;32.90;;;;;;5019313;28;20401;-13
2022/08/01 10:16:47;;;;;;;6.57;2.70;;;37.40;33.30;;;;;;5019689;28;20422;-13
2022/08/01 10:19:14;;;;;;;3.83;2.40;;;37.10;33.70;;;;;;5019531;28;20042;-12
2022/08/01 10:21:44;;;;;;;2.40;2.20;;;36.90;34.30;;;;;;5019567;28;20025;-13
2022/08/01 10:24:12;;;;;;;3.30;2.20;;;36.70;34.90;;;;;;5019521;28;20052;-13
2022/08/01 10:26:39;;;;;;;3.33;2.35;;;36.90;35.20;;;;;;5019112;28;20037;-13
2022/08/01 10:29:06;;;;;;;2.72;2.40;;;37.40;34.60;;;;;;5019355;28;20386;-13
2022/08/01 10:31:32;;;;;;;5.65;2.60;;;37.80;34.00;;;;;;5019211;28;20440;-13
2022/08/01 10:34:00;;;;;;;2.47;2.28;;;38.30;33.10;;;;;;5019310;28;20553;-13
2022/08/01 10:36:27;;;;;;;4.22;2.40;;;38.90;31.90;;;;;;5018862;28;20030;-13
2022/08/01 10:38:57;;;;;;;3.17;2.53;;;39.40;31.40;;;;;;5016056;28;20564;-12
2022/08/01 10:41:25;;;;;;;2.60;2.40;;;39.80;30.30;;;;;;5015831;28;20049;-13
2022/08/01 10:43:52;;;;;;;3.97;2.50;;;40.00;29.70;;;;;;5016323;28;20091;-13
2022/08/01 10:46:20;;;;;;;2.72;2.38;;;40.30;29.50;;;;;;5016035;28;20052;-13
2022/08/01 10:49:10;;;;;;;2.78;2.28;;;40.40;29.20;;;;;;5015998;28;20026;-13
2022/08/01 10:51:40;;;;;;;3.55;2.30;;;40.60;28.50;;;;;;5016329;28;20033;-13
2022/08/01 10:54:08;;;;;;;4.20;2.40;;;41.00;29.00;;;;;;5016034;28;20022;-13
2022/08/01 10:56:44;;;;;;;2.65;2.42;;;41.30;27.70;;;;;;5015661;28;20030;-13
2022/08/01 10:59:21;;;;;;;3.20;2.20;;;41.40;27.50;;;;;;5015650;28;20033;-13
2022/08/01 11:02:04;;;;;;;2.58;2.30;;;41.50;27.20;;;;;;5016035;28;20104;-13
2022/08/01 11:04:44;;;;;;;3.22;2.55;;;41.40;27.80;;;;;;5015491;28;20058;-12
2022/08/01 11:07:20;;;;;;;3.97;2.63;;;41.40;27.80;;;;;;5016274;28;20117;-13
2022/08/01 11:09:51;;;;;;;4.40;2.58;;;41.40;28.20;;;;;;5014378;28;20038;-12
2022/08/01 11:12:18;;;;;;;5.50;2.30;;;41.20;28.20;;;;;;5015340;28;20022;-13
2022/08/01 11:15:10;;;;;;;3.85;2.33;;;41.10;28.70;;;;;;5015521;28;20037;-13
2022/08/01 11:17:38;;;;;;;;;;;41.20;28.30;;;;;;5014580;28;20042;-13
2022/08/01 11:20:54;;;;;;;3.53;2.30;;;41.50;27.70;;;;;;5015481;28;19909;-13
2022/08/01 11:23:20;;;;;;;3.42;2.47;;;42.10;26.80;;;;;;4993744;28;20054;-13
2022/08/01 11:25:47;;;;;;;2.63;2.40;;;42.40;27.20;;;;;;4993867;28;20089;-13
2022/08/01 11:28:25;;;;;;;2.75;2.40;;;42.70;27.00;;;;;;4993604;28;20042;-13
2022/08/01 11:31:08;;;;;;;4.50;2.50;;;43.00;27.00;;;;;;4993417;28;20454;-13
2022/08/01 11:33:40;;;;;;;4.47;2.70;;;43.40;26.30;;;;;;4993383;28;20450;-13
2022/08/01 11:36:21;;;;;;;3.28;2.60;;;43.70;25.80;;;;;;4993678;28;20026;-13
2022/08/01 11:39:07;;;;;;;4.95;2.70;;;43.90;25.40;;;;;;4993522;28;20038;-13
2022/08/01 11:41:35;;;;;;;4.10;2.38;;;44.00;25.20;;;;;;4983197;28;20462;-13
2022/08/01 11:44:09;;;;;;;6.10;2.55;;;44.10;24.80;;;;;;4993396;28;20042;-13
2022/08/01 11:47:01;;;;;;;3.13;2.38;;;44.20;24.70;;;;;;4993113;28;20026;-13
2022/08/01 11:49:36;;;;;;;;;;;44.20;24.30;;;;;;4993016;28;20105;-13
2022/08/01 11:52:14;;;;;;;2.63;2.42;;;44.20;24.60;;;;;;4993106;28;19906;-13
2022/08/01 11:54:41;;;;;;;6.75;2.30;;;44.40;24.80;;;;;;4993126;28;20034;-13
2022/08/01 11:57:13;;;;;;;3.05;2.10;;;44.70;24.30;;;;;;5004890;28;20044;-13
2022/08/01 11:59:47;;;;;;;3.53;2.22;;;44.90;24.20;;;;;;5014676;28;20113;-13
2022/08/01 12:02:30;;;;;;;2.90;2.60;;;45.00;23.60;;;;;;5014885;28;20041;-13
2022/08/01 12:05:00;;;;;;;4.22;2.38;;;45.00;24.10;;;;;;5014746;28;20025;-13
2022/08/01 12:07:29;;;;;;;4.18;2.22;;;45.00;23.70;;;;;;5014408;28;20038;-13
2022/08/01 12:10:07;;;;;;;3.95;2.40;;;45.00;23.50;;;;;;5014542;28;20022;-13
2022/08/01 12:12:36;;;;;;;2.40;2.30;;;44.90;23.30;;;;;;5014564;28;20103;-13
2022/08/01 12:15:08;;;;;;;3.30;2.13;;;44.50;23.40;;;;;;5014359;28;20033;-13
2022/08/01 12:17:41;;;;;;;2.20;2.10;;;44.20;23.70;;;;;;5014458;28;20072;-13
2022/08/01 12:20:10;;;;;;;3.03;1.90;;;44.00;23.80;;;;;;5013017;28;20057;-13
2022/08/01 12:22:37;;;;;;;2.08;1.98;;;44.20;23.70;;;;;;5014014;28;20029;-13
2022/08/01 12:25:14;;;;;;;2.72;1.98;;;44.50;23.70;;;;;;5014637;28;20037;-13
2022/08/01 12:27:42;;;;;;;3.67;2.30;;;44.90;23.40;;;;;;5014104;28;20501;-13
2022/08/01 12:30:10;;;;;;;3.38;2.20;;;45.20;23.30;;;;;;5014089;28;20037;-13
2022/08/01 12:32:39;;;;;;;2.47;2.00;;;45.20;22.80;;;;;;5014083;28;20033;-13
2022/08/01 12:35:25;;;;;;;2.53;2.28;;;45.40;22.60;;;;;;5014366;28;20060;-13
2022/08/01 12:38:01;;;;;;;4.00;2.03;;;45.50;22.20;;;;;;5013691;28;20121;-13
2022/08/01 12:40:28;;;;;;;2.25;2.05;;;45.50;22.50;;;;;;5013789;28;20050;-13
2022/08/01 12:43:06;;;;;;;2.17;1.98;;;45.20;22.90;;;;;;5014221;28;20056;-13
2022/08/01 12:45:39;;;;;;;2.20;2.00;;;45.20;23.10;;;;;;5014181;28;20105;-13
2022/08/01 12:48:13;;;;;;;1.92;1.83;;;45.40;23.10;;;;;;5013816;28;20064;-13
2022/08/01 12:50:43;;;;;;;2.17;2.00;;;45.60;22.00;;;;;;5014021;28;20028;-13
2022/08/01 12:53:11;;;;;;;4.95;2.38;;;45.60;22.40;;;;;;5013684;28;20390;-13
2022/08/01 12:55:51;;;;;;;2.67;2.15;;;45.30;22.50;;;;;;5013973;28;20034;-13
2022/08/01 12:58:19;;;;;;;3.08;1.88;;;45.20;22.70;;;;;;5013716;28;20076;-13
2022/08/01 13:00:47;;;;;;;2.20;2.00;;;45.30;22.40;;;;;;5012793;28;20034;-13
2022/08/01 13:03:16;;;;;;;1.73;1.63;;;45.50;21.70;;;;;;5013624;28;20061;-13